Time;durP1;ratioP1;P1;durP2;ratioP2;P2;SDS_P1;SDS_P2;PMS_P1;PMS_P2;Temp;Humidity;BMP_temperature;BMP_pressure;BME280_temperature;BME280_humidity;BME280_pressure;Samples;Min_cycle;Max_cycle;Signal;HPM_P1;HPM_P2
2021/03/24 00:01:54;;;;;;;3.60;1.37;;;;;;;-1.88;60.69;99418.84;1747048;82;21206;-68
2021/03/24 00:04:22;;;;;;;4.03;1.40;;;;;;;-1.91;60.80;99413.91;1747123;81;21162;-68
2021/03/24 00:06:51;;;;;;;3.62;1.35;;;;;;;-1.94;60.93;99416.94;1747055;81;21174;-67
2021/03/24 00:09:19;;;;;;;3.98;1.42;;;;;;;-1.96;61.00;99412.33;1746997;82;21130;-68
2021/03/24 00:11:48;;;;;;;4.62;1.50;;;;;;;-1.98;61.01;99411.72;1747120;81;21600;-68
2021/03/24 00:14:17;;;;;;;4.75;1.70;;;;;;;-1.97;60.93;99408.84;1747235;81;21154;-67
2021/03/24 00:16:48;;;;;;;4.53;1.62;;;;;;;-1.96;61.06;99411.83;1747269;81;21186;-68
2021/03/24 00:19:17;;;;;;;2.98;1.32;;;;;;;-1.97;61.05;99414.67;1747085;81;21561;-68
2021/03/24 00:21:47;;;;;;;3.45;1.50;;;;;;;-1.97;60.93;99412.02;1746365;82;21739;-68
2021/03/24 00:24:16;;;;;;;3.33;1.30;;;;;;;-1.97;61.04;99422.68;1747072;82;21149;-68
2021/03/24 00:26:44;;;;;;;2.72;1.37;;;;;;;-2.02;61.47;99421.42;1747065;80;21221;-67
2021/03/24 00:29:12;;;;;;;4.35;1.62;;;;;;;-2.05;61.27;99415.16;1746931;82;21141;-67
2021/03/24 00:31:40;;;;;;;3.70;1.50;;;;;;;-2.07;61.44;99423.89;1747039;81;21719;-68
2021/03/24 00:34:08;;;;;;;3.55;1.30;;;;;;;-2.05;61.51;99425.00;1747310;81;21166;-68
2021/03/24 00:36:35;;;;;;;2.60;1.32;;;;;;;-2.07;61.60;99425.72;1747269;81;21594;-68
2021/03/24 00:39:03;;;;;;;4.85;1.57;;;;;;;-2.15;61.89;99428.55;1747943;81;21146;-68
2021/03/24 00:41:31;;;;;;;3.55;1.37;;;;;;;-2.13;61.77;99435.86;1747247;82;21150;-68
2021/03/24 00:43:58;;;;;;;3.42;1.20;;;;;;;-2.15;61.67;99434.71;1747268;82;21193;-68
2021/03/24 00:46:26;;;;;;;3.62;1.47;;;;;;;-2.20;61.81;99443.00;1747281;82;21597;-67
2021/03/24 00:48:54;;;;;;;4.60;1.42;;;;;;;-2.19;62.05;99445.95;1766536;81;21292;-67
2021/03/24 00:51:23;;;;;;;4.05;1.70;;;;;;;-2.17;61.88;99447.43;1763298;81;21222;-66
2021/03/24 00:53:52;;;;;;;5.20;1.80;;;;;;;-2.18;61.81;99446.28;1747173;82;21177;-66
2021/03/24 00:56:19;;;;;;;4.20;1.55;;;;;;;-2.22;61.86;99445.02;1747208;82;21341;-66
2021/03/24 00:58:47;;;;;;;4.40;1.60;;;;;;;-2.19;62.06;99437.96;1736938;82;21293;-67
2021/03/24 01:01:15;;;;;;;3.00;1.20;;;;;;;-2.18;62.16;99447.11;1747173;82;21146;-67
2021/03/24 01:03:43;;;;;;;3.85;1.40;;;;;;;-2.16;61.87;99445.59;1747156;82;21481;-67
2021/03/24 01:06:11;;;;;;;4.92;1.65;;;;;;;-2.20;61.95;99443.00;1747288;82;21146;-66
2021/03/24 01:08:38;;;;;;;5.03;1.40;;;;;;;-2.18;61.88;99444.95;1747304;82;21134;-66
2021/03/24 01:11:06;;;;;;;2.92;1.42;;;;;;;-2.19;61.87;99445.95;1747219;82;21158;-68
2021/03/24 01:13:33;;;;;;;6.15;1.60;;;;;;;-2.21;61.95;99453.34;1747298;82;21178;-66
2021/03/24 01:16:04;;;;;;;3.62;1.57;;;;;;;-2.22;61.94;99454.36;1747180;82;21222;-67
2021/03/24 01:18:32;;;;;;;3.67;1.27;;;;;;;-2.18;61.96;99459.11;1726219;82;21172;-68
2021/03/24 01:20:59;;;;;;;3.92;1.77;;;;;;;-2.21;61.96;99462.17;1747284;82;21173;-67
2021/03/24 01:23:28;;;;;;;5.35;1.90;;;;;;;-2.18;61.98;99464.44;1747209;82;21150;-67
2021/03/24 01:25:56;;;;;;;3.10;1.25;;;;;;;-2.23;62.09;99458.06;1746903;82;21175;-67
2021/03/24 01:28:28;;;;;;;5.45;1.90;;;;;;;-2.20;62.14;99463.00;1747269;81;21161;-68
2021/03/24 01:30:59;;;;;;;5.15;1.92;;;;;;;-2.17;62.14;99467.44;1747125;82;21269;-67
2021/03/24 01:33:28;;;;;;;5.28;1.50;;;;;;;-2.24;62.29;99472.41;1747050;82;21134;-67
2021/03/24 01:35:57;;;;;;;4.05;1.57;;;;;;;-2.23;62.41;99469.53;1747351;81;22311;-66
2021/03/24 01:38:24;;;;;;;3.25;1.55;;;;;;;-2.25;62.45;99478.25;1747197;81;21598;-67
2021/03/24 01:40:57;;;;;;;3.45;1.67;;;;;;;-2.22;62.49;99480.52;1736791;82;21219;-67
2021/03/24 01:43:29;;;;;;;4.28;1.87;;;;;;;-2.24;62.60;99477.23;1747255;82;21284;-67
2021/03/24 01:46:22;;;;;;;4.78;1.70;;;;;;;-2.23;62.64;99480.20;1748043;81;21241;-68
2021/03/24 01:49:05;;;;;;;6.17;2.20;;;;;;;-2.25;62.70;99481.42;1747424;82;21605;-67
2021/03/24 01:51:46;;;;;;;6.75;2.15;;;;;;;-2.23;62.78;99487.40;1749840;82;21181;-68
2021/03/24 01:54:19;;;;;;;5.05;2.08;;;;;;;-2.19;62.67;99492.63;1747455;82;21327;-68
2021/03/24 01:56:48;;;;;;;5.50;1.60;;;;;;;-2.20;62.61;99487.83;1755066;82;21185;-68
2021/03/24 01:59:16;;;;;;;4.62;2.10;;;;;;;-2.20;62.79;99489.16;1757029;80;21584;-68
2021/03/24 02:01:44;;;;;;;4.92;2.27;;;;;;;-2.16;62.74;99486.92;1755108;82;21252;-68
2021/03/24 02:04:12;;;;;;;4.67;2.10;;;;;;;-2.14;62.67;99488.88;1767834;80;21145;-67
2021/03/24 02:08:37;;;;;;;3.42;1.77;;;;;;;-2.17;62.90;99495.44;1818780;79;22835;-67
2021/03/24 02:11:16;;;;;;;4.95;2.02;;;;;;;-2.24;63.05;99495.08;1767632;80;21188;-66
2021/03/24 02:13:52;;;;;;;5.85;2.22;;;;;;;-2.20;63.03;99499.00;1762574;81;21615;-66
2021/03/24 02:16:34;;;;;;;6.15;2.02;;;;;;;-2.26;63.30;99505.09;1756328;82;21585;-66
2021/03/24 02:19:08;;;;;;;4.80;1.77;;;;;;;-2.25;63.39;99501.41;1733050;82;21368;-66
2021/03/24 02:21:37;;;;;;;7.22;2.45;;;;;;;-2.26;63.43;99496.59;1730817;83;21164;-67
2021/03/24 02:24:25;;;;;;;4.15;1.77;;;;;;;-2.28;63.47;99501.81;1748709;82;21576;-67
2021/03/24 02:27:19;;;;;;;4.85;2.15;;;;;;;-2.28;63.63;99504.48;1754672;82;21180;-66
2021/03/24 02:29:53;;;;;;;6.03;2.12;;;;;;;-2.32;63.66;99507.22;1754999;82;21460;-66
2021/03/24 02:32:23;;;;;;;4.95;2.17;;;;;;;-2.28;63.70;99504.48;1755118;81;21697;-66
2021/03/24 02:34:51;;;;;;;5.72;1.90;;;;;;;-2.28;63.79;99509.30;1754674;80;21185;-67
2021/03/24 02:37:19;;;;;;;5.35;1.75;;;;;;;-2.32;63.77;99514.70;1755052;82;21153;-66
2021/03/24 02:39:46;;;;;;;5.53;1.90;;;;;;;-2.27;63.79;99508.80;1754932;82;21173;-67
2021/03/24 02:42:14;;;;;;;5.83;2.25;;;;;;;-2.31;63.92;99511.53;1725642;82;21132;-66
2021/03/24 02:44:43;;;;;;;4.97;2.30;;;;;;;-2.29;64.01;99507.65;1726614;82;21216;-67
2021/03/24 02:47:10;;;;;;;4.72;1.75;;;;;;;-2.26;63.96;99509.92;1753612;82;21153;-66
2021/03/24 02:49:40;;;;;;;4.87;2.10;;;;;;;-2.30;64.11;99509.99;1753656;82;21315;-67
2021/03/24 02:52:08;;;;;;;5.70;2.00;;;;;;;-2.28;64.05;99512.47;1703377;82;21686;-67
2021/03/24 02:54:36;;;;;;;5.08;2.27;;;;;;;-2.34;64.30;99511.42;1753634;82;21142;-66
2021/03/24 02:57:05;;;;;;;5.22;1.90;;;;;;;-2.33;64.42;99520.22;1754779;82;21193;-66
2021/03/24 02:59:33;;;;;;;7.20;2.47;;;;;;;-2.38;64.54;99526.66;1755012;82;21331;-67
2021/03/24 03:02:12;;;;;;;6.33;2.50;;;;;;;-2.38;64.67;99524.83;1758196;81;21665;-66
2021/03/24 03:04:48;;;;;;;6.12;2.62;;;;;;;-2.38;64.80;99531.99;1760652;81;21536;-67
2021/03/24 03:07:25;;;;;;;4.50;1.92;;;;;;;-2.36;64.74;99536.61;1760766;81;21302;-68
2021/03/24 03:09:59;;;;;;;6.12;2.15;;;;;;;-2.36;64.67;99540.10;1761133;81;21184;-67
2021/03/24 03:12:35;;;;;;;6.72;2.00;;;;;;;-2.36;64.73;99537.44;1752648;81;21141;-67
2021/03/24 03:15:11;;;;;;;6.65;2.15;;;;;;;-2.39;64.90;99544.49;1750203;81;21141;-67
2021/03/24 03:17:47;;;;;;;5.67;2.25;;;;;;;-2.38;64.96;99544.81;1755682;81;21323;-67
2021/03/24 03:20:26;;;;;;;5.92;2.02;;;;;;;-2.44;65.05;99546.10;1753460;81;21572;-66
2021/03/24 03:23:07;;;;;;;5.08;2.30;;;;;;;-2.47;65.20;99537.96;1745657;82;21141;-66
2021/03/24 03:25:38;;;;;;;5.67;2.05;;;;;;;-2.52;65.34;99539.89;1745623;82;21180;-67
2021/03/24 03:28:09;;;;;;;3.98;2.00;;;;;;;-2.51;65.22;99534.86;1745517;82;21145;-66
2021/03/24 03:30:39;;;;;;;6.50;2.47;;;;;;;-2.55;65.43;99538.92;1746224;82;21141;-66
2021/03/24 03:33:10;;;;;;;5.25;1.80;;;;;;;-2.52;65.23;99535.89;1745640;82;21242;-66
2021/03/24 03:35:39;;;;;;;5.87;1.90;;;;;;;-2.56;65.36;99541.80;1730321;81;21290;-67
2021/03/24 03:38:13;;;;;;;4.87;2.58;;;;;;;-2.56;65.34;99545.29;1730345;83;21220;-67
2021/03/24 03:40:41;;;;;;;6.10;2.27;;;;;;;-2.58;65.34;99543.81;1747691;82;21172;-67
2021/03/24 03:43:12;;;;;;;4.67;2.40;;;;;;;-2.57;65.46;99550.80;1755095;82;21676;-67
2021/03/24 03:45:40;;;;;;;7.12;2.22;;;;;;;-2.61;65.49;99535.70;1754909;80;21188;-66
2021/03/24 03:48:11;;;;;;;5.78;2.40;;;;;;;-2.57;65.46;99544.13;1727523;82;21283;-67
2021/03/24 03:50:39;;;;;;;4.50;1.90;;;;;;;-2.61;65.54;99539.70;1755016;80;21744;-67
2021/03/24 03:53:24;;;;;;;4.10;1.92;;;;;;;-2.57;65.53;99550.30;1755075;82;21161;-66
2021/03/24 03:56:17;;;;;;;5.75;2.50;;;;;;;-2.60;65.65;99554.68;1755106;82;21189;-66
2021/03/24 03:58:56;;;;;;;4.62;2.00;;;;;;;-2.76;65.66;99528.28;1754591;81;21165;-66
2021/03/24 04:01:26;;;;;;;4.75;2.08;;;;;;;-2.60;65.62;99553.85;1754373;80;21138;-66
2021/03/24 04:04:25;;;;;;;4.47;1.87;;;;;;;-2.61;65.59;99558.86;1745506;81;21149;-66
2021/03/24 04:07:01;;;;;;;4.85;2.35;;;;;;;-2.62;65.68;99565.19;1721513;81;21205;-67
2021/03/24 04:09:29;;;;;;;3.33;1.87;;;;;;;-2.62;65.61;99565.19;1745492;82;21177;-68
2021/03/24 04:11:56;;;;;;;5.20;2.40;;;;;;;-2.63;65.61;99567.56;1745555;82;21153;-68
2021/03/24 04:14:27;;;;;;;6.00;1.95;;;;;;;-2.62;65.62;99564.69;1745530;81;21117;-67
2021/03/24 04:16:55;;;;;;;3.47;1.62;;;;;;;-2.67;65.80;99563.12;1745676;82;21616;-67
2021/03/24 04:19:28;;;;;;;3.72;2.10;;;;;;;-2.59;65.55;99562.17;1757401;81;21185;-67
2021/03/24 04:22:00;;;;;;;5.95;2.00;;;;;;;-2.62;65.54;99562.53;1750636;81;21113;-67
2021/03/24 04:24:38;;;;;;;5.53;1.77;;;;;;;-2.60;65.46;99568.00;1721387;82;21206;-67
2021/03/24 04:27:07;;;;;;;3.57;1.90;;;;;;;-2.60;65.59;99572.50;1702114;82;21240;-68
2021/03/24 04:29:39;;;;;;;5.22;2.35;;;;;;;-2.60;65.61;99572.50;1754930;82;22322;-68
2021/03/24 04:32:08;;;;;;;4.65;2.02;;;;;;;-2.61;65.65;99581.51;1754749;82;21149;-68
2021/03/24 04:34:36;;;;;;;5.42;2.20;;;;;;;-2.61;65.59;99574.34;1754985;80;21616;-67
2021/03/24 04:37:28;;;;;;;4.75;2.40;;;;;;;-2.61;65.69;99578.34;1753491;81;21356;-67
2021/03/24 04:40:10;;;;;;;5.67;2.90;;;;;;;-2.62;65.62;99591.34;1747060;82;21125;-67
2021/03/24 04:42:46;;;;;;;7.70;3.42;;;;;;;-2.59;65.57;99590.16;1754922;82;21181;-68
2021/03/24 04:45:37;;;;;;;8.43;3.70;;;;;;;-2.59;65.53;99598.98;1754870;81;21125;-67
2021/03/24 04:48:13;;;;;;;9.23;3.65;;;;;;;-2.47;65.34;99603.77;1745533;82;21157;-67
2021/03/24 04:50:58;;;;;;;10.00;3.75;;;;;;;-2.43;65.28;99608.53;1745867;82;21665;-67
2021/03/24 04:53:29;;;;;;;9.53;3.90;;;;;;;-2.40;65.11;99608.66;1745218;82;21734;-67
2021/03/24 04:55:57;;;;;;;9.03;3.47;;;;;;;-2.35;65.00;99609.75;1746195;82;21704;-68
2021/03/24 04:58:44;;;;;;;12.10;3.67;;;;;;;-2.28;64.72;99616.47;1745561;82;21144;-68
2021/03/24 05:01:37;;;;;;;9.00;3.85;;;;;;;-2.27;64.53;99606.95;1730593;81;21199;-67
2021/03/24 05:04:23;;;;;;;10.23;3.58;;;;;;;-2.22;64.57;99611.18;1778614;79;22458;-67
2021/03/24 05:07:08;;;;;;;9.15;3.87;;;;;;;-2.20;64.39;99619.83;1722659;83;21143;-67
2021/03/24 05:09:44;;;;;;;10.03;4.17;;;;;;;-2.08;64.25;99618.27;1822810;77;22536;-67
2021/03/24 05:12:24;;;;;;;8.60;4.08;;;;;;;-2.13;64.10;99631.38;1759710;81;21318;-67
2021/03/24 05:15:00;;;;;;;7.00;3.10;;;;;;;-1.98;63.95;99631.80;1768131;81;21210;-67
2021/03/24 05:17:32;;;;;;;6.15;3.25;;;;;;;-1.89;63.71;99630.12;1738386;82;21188;-67
2021/03/24 05:20:07;;;;;;;7.87;4.00;;;;;;;-1.75;63.53;99635.86;1766424;81;21168;-67
2021/03/24 05:22:44;;;;;;;8.63;3.95;;;;;;;-1.67;62.89;99641.06;1769224;81;21258;-67
2021/03/24 05:25:31;;;;;;;8.30;3.87;;;;;;;-1.52;62.63;99633.73;1748115;81;21310;-67
2021/03/24 05:28:13;;;;;;;8.68;4.22;;;;;;;-1.37;62.12;99626.94;1739152;82;21188;-68
2021/03/24 05:31:03;;;;;;;7.62;3.47;;;;;;;-1.26;61.70;99633.06;1739004;82;21176;-68
2021/03/24 05:33:34;;;;;;;9.65;3.47;;;;;;;-1.27;61.54;99628.73;1739001;82;21200;-68
2021/03/24 05:36:23;;;;;;;8.33;3.37;;;;;;;-1.30;61.58;99634.98;1738895;81;21626;-68
2021/03/24 05:38:52;;;;;;;6.85;3.30;;;;;;;-1.27;61.82;99642.59;1738925;82;21342;-67
2021/03/24 05:41:47;;;;;;;7.60;3.47;;;;;;;-1.28;61.55;99635.63;1738792;82;21188;-68
2021/03/24 05:44:52;;;;;;;5.87;2.90;;;;;;;-1.29;61.59;99634.80;1742269;80;21318;-68
2021/03/24 05:47:28;;;;;;;4.62;1.70;;;;;;;-1.25;61.07;99639.23;1768766;81;21136;-68
2021/03/24 05:50:25;;;;;;;9.98;4.05;;;;;;;-1.24;60.97;99632.34;1769396;81;21660;-68
2021/03/24 05:53:13;;;;;;;8.33;3.40;;;;;;;-1.22;61.18;99640.17;1769259;81;21141;-68
2021/03/24 05:56:14;;;;;;;5.90;3.15;;;;;;;-1.19;61.10;99641.93;1738821;82;21172;-68
2021/03/24 05:59:08;;;;;;;6.12;2.98;;;;;;;-1.14;60.93;99648.02;1738847;82;21191;-69
2021/03/24 06:01:48;;;;;;;5.60;2.95;;;;;;;-1.07;60.68;99635.52;1738304;82;21180;-69
2021/03/24 06:04:24;;;;;;;7.83;3.02;;;;;;;-1.03;60.52;99644.25;1769334;81;21172;-68
2021/03/24 06:07:38;;;;;;;5.72;2.75;;;;;;;-0.94;60.46;99649.42;1769425;81;21153;-68
2021/03/24 06:10:45;;;;;;;5.90;2.67;;;;;;;-0.88;59.66;99631.25;1769357;81;21208;-67
2021/03/24 06:13:54;;;;;;;5.90;2.62;;;;;;;-0.76;59.39;99653.71;1758727;81;21159;-68
2021/03/24 06:16:36;;;;;;;5.12;1.98;;;;;;;-0.77;59.02;99654.22;1738877;82;21202;-66
2021/03/24 06:19:25;;;;;;;7.67;2.95;;;;;;;-0.79;58.90;99660.30;1738577;82;21161;-67
2021/03/24 06:22:17;;;;;;;7.17;2.77;;;;;;;-0.74;59.19;99659.16;1738228;82;21168;-67
2021/03/24 06:25:12;;;;;;;6.65;2.95;;;;;;;-0.58;58.33;99662.83;1738132;82;21330;-68
2021/03/24 06:28:19;;;;;;;7.97;3.60;;;;;;;-0.33;58.01;99666.27;1708011;82;21703;-68
2021/03/24 06:31:01;;;;;;;8.40;3.30;;;;;;;-0.11;57.36;99664.52;1645936;87;21912;-68
2021/03/24 06:33:46;;;;;;;5.78;3.08;;;;;;;0.03;56.44;99669.91;1647848;87;21223;-68
2021/03/24 06:36:43;;;;;;;6.90;2.50;;;;;;;0.14;56.32;99666.11;1666148;86;21644;-69
2021/03/24 06:39:38;;;;;;;4.65;2.37;;;;;;;0.18;55.70;99667.86;1675159;86;21623;-68
2021/03/24 06:42:48;;;;;;;9.58;2.98;;;;;;;0.30;55.66;99667.02;1675123;86;21168;-68
2021/03/24 06:45:27;;;;;;;7.10;2.80;;;;;;;0.43;54.88;99672.86;1674457;86;21180;-68
2021/03/24 06:48:48;;;;;;;5.70;3.12;;;;;;;0.61;54.49;99679.73;1675173;86;21189;-67
2021/03/24 06:51:30;;;;;;;4.37;2.30;;;;;;;0.76;54.25;99680.84;1675045;85;21339;-68
2021/03/24 06:54:37;;;;;;;5.72;2.47;;;;;;;0.90;53.38;99671.74;1674986;86;21176;-67
2021/03/24 06:57:38;;;;;;;4.12;2.25;;;;;;;1.07;53.15;99675.59;1675218;86;21224;-67
2021/03/24 07:00:42;;;;;;;5.78;2.60;;;;;;;1.16;52.21;99680.22;1674168;86;21220;-68
2021/03/24 07:03:55;;;;;;;4.37;2.40;;;;;;;1.26;52.72;99672.53;1675096;86;21256;-67
2021/03/24 07:06:49;;;;;;;6.40;2.05;;;;;;;1.50;51.63;99667.25;1674978;86;21176;-67
2021/03/24 07:09:49;;;;;;;6.20;2.42;;;;;;;1.61;50.78;99664.41;1675002;86;21233;-68
2021/03/24 07:12:34;;;;;;;5.62;2.62;;;;;;;1.71;50.37;99669.30;1779763;79;23100;-67
2021/03/24 07:15:29;;;;;;;4.72;1.90;;;;;;;1.60;50.16;99672.66;1740315;82;21712;-67
2021/03/24 07:18:32;;;;;;;4.10;2.45;;;;;;;1.60;50.43;99677.52;1722743;83;21169;-67
2021/03/24 07:21:30;;;;;;;5.85;2.52;;;;;;;1.66;50.64;99665.11;1722653;82;21542;-67
2021/03/24 07:24:25;;;;;;;5.87;2.50;;;;;;;1.86;50.12;99676.02;1720773;83;21556;-68
2021/03/24 07:27:34;;;;;;;5.60;2.65;;;;;;;2.05;50.33;99678.27;1716304;83;21592;-67
2021/03/24 07:30:20;;;;;;;5.03;2.08;;;;;;;2.20;49.51;99673.37;1694008;85;21173;-67
2021/03/24 07:33:06;;;;;;;5.00;3.08;;;;;;;2.20;49.51;99684.63;1779150;79;23439;-67
2021/03/24 07:36:07;;;;;;;7.60;2.50;;;;;;;2.17;49.53;99682.39;1734094;82;21137;-67
2021/03/24 07:39:21;;;;;;;5.03;2.70;;;;;;;2.19;49.65;99687.05;1721977;83;21303;-67
2021/03/24 07:42:28;;;;;;;4.47;2.60;;;;;;;2.09;49.47;99690.73;1772845;81;21177;-67
2021/03/24 07:45:22;;;;;;;7.30;3.15;;;;;;;2.17;49.32;99687.25;1827379;77;21107;-67
2021/03/24 07:48:49;;;;;;;6.00;3.02;;;;;;;2.31;50.45;99687.95;1791152;79;21154;-67
2021/03/24 07:51:50;;;;;;;8.45;2.92;;;;;;;2.54;49.34;99694.08;1790031;77;21625;-67
2021/03/24 07:54:29;;;;;;;4.67;2.60;;;;;;;2.75;48.96;99701.20;1756334;81;21186;-66
2021/03/24 07:57:05;;;;;;;5.87;2.67;;;;;;;2.81;49.60;99704.86;1775584;81;21124;-67
2021/03/24 07:59:59;;;;;;;3.37;1.92;;;;;;;2.67;48.07;99702.00;1777747;81;21291;-67
2021/03/24 08:03:11;;;;;;;8.18;3.17;;;;;;;2.69;48.14;99703.97;1691955;84;21169;-67
2021/03/24 08:06:38;;;;;;;8.13;2.87;;;;;;;2.80;49.33;99695.97;1695339;84;21260;-66
2021/03/24 08:09:48;;;;;;;6.92;3.20;;;;;;;2.99;48.73;99692.78;1708665;83;21599;-68
2021/03/24 08:12:42;;;;;;;4.42;2.62;;;;;;;3.24;46.78;99692.19;1704362;83;21200;-67
2021/03/24 08:15:51;;;;;;;6.55;3.22;;;;;;;3.24;46.78;99692.19;1718359;83;21182;-67
2021/03/24 08:18:37;;;;;;;7.05;3.37;;;;;;;3.23;47.19;99695.91;1682946;85;21310;-67
2021/03/24 08:21:45;;;;;;;7.90;3.55;;;;;;;3.31;46.87;99698.83;1693458;82;21783;-67
2021/03/24 08:24:37;;;;;;;6.65;3.58;;;;;;;3.41;46.89;99710.70;1644016;85;21156;-67
2021/03/24 08:27:21;;;;;;;7.42;3.15;;;;;;;3.44;47.32;99712.11;1700515;84;21133;-66
2021/03/24 08:30:19;;;;;;;6.37;3.55;;;;;;;3.65;47.14;99717.02;1700660;83;21243;-67
2021/03/24 08:36:21;;;;;;;5.45;3.17;;;;;;;3.71;46.09;99709.39;1753078;79;22957;-70
2021/03/24 08:38:57;;;;;;;;;;;;;;;3.71;46.99;99718.81;1724715;82;21556;-71
2021/03/24 08:41:46;;;;;;;6.83;3.60;;;;;;;3.74;46.02;99730.99;1723047;83;20172;-70
2021/03/24 08:44:30;;;;;;;6.33;4.03;;;;;;;3.67;46.44;99704.69;1707802;83;21169;-70
2021/03/24 08:47:02;;;;;;;5.95;3.45;;;;;;;3.74;45.85;99710.80;1722827;83;21153;-69
2021/03/24 08:49:34;;;;;;;6.10;3.17;;;;;;;3.68;46.28;99720.63;1692782;83;21610;-69
2021/03/24 08:52:13;;;;;;;8.40;3.87;;;;;;;3.73;45.95;99716.70;1722687;83;21173;-70
2021/03/24 08:54:53;;;;;;;6.72;3.60;;;;;;;3.81;45.69;99719.09;1722416;83;21199;-69
2021/03/24 08:57:36;;;;;;;6.65;3.37;;;;;;;3.87;45.84;99726.77;1723015;83;21291;-71
2021/03/24 09:00:54;;;;;;;6.42;3.70;;;;;;;3.75;46.02;99724.05;1693847;83;21176;-70
2021/03/24 09:04:06;;;;;;;5.12;3.30;;;;;;;3.61;45.79;99733.86;1693897;85;21173;-70
2021/03/24 09:07:10;;;;;;;6.40;3.30;;;;;;;3.72;46.09;99716.95;1693941;84;21530;-70
2021/03/24 09:10:35;;;;;;;7.37;3.67;;;;;;;3.94;45.71;99725.63;1680857;83;21320;-70
2021/03/24 09:13:27;;;;;;;5.62;3.60;;;;;;;4.09;45.62;99732.47;1718033;83;21137;-72
2021/03/24 09:16:21;;;;;;;5.33;3.30;;;;;;;4.10;44.80;99732.77;1722576;83;21218;-69
2021/03/24 09:18:54;;;;;;;5.60;3.40;;;;;;;3.88;45.27;99740.02;1686014;80;21165;-70
2021/03/24 09:21:32;;;;;;;5.67;3.52;;;;;;;3.90;45.64;99733.03;1726479;80;21157;-71
2021/03/24 09:24:33;;;;;;;8.28;3.33;;;;;;;3.86;45.61;99742.65;1726310;80;21173;-68
2021/03/24 09:27:20;;;;;;;5.33;3.65;;;;;;;3.82;45.32;99754.92;1722218;83;21122;-70
2021/03/24 09:30:20;;;;;;;6.00;3.45;;;;;;;3.92;46.08;99747.11;1722875;83;21133;-70
2021/03/24 09:36:40;;;;;;;6.22;3.98;;;;;;;3.78;45.98;99741.09;1691638;84;21199;-70
2021/03/24 09:39:34;;;;;;;5.25;3.55;;;;;;;3.59;46.32;99744.02;1691798;85;21168;-70
2021/03/24 09:42:08;;;;;;;6.10;3.72;;;;;;;3.41;46.63;99736.78;1658021;86;21215;-70
2021/03/24 09:44:47;;;;;;;5.87;3.60;;;;;;;3.33;47.07;99747.88;1664121;86;21617;-69
2021/03/24 09:47:50;;;;;;;5.17;3.35;;;;;;;3.36;47.18;99744.20;1669368;85;21204;-69
2021/03/24 09:50:43;;;;;;;5.40;3.37;;;;;;;3.39;47.49;99743.75;1691241;85;21654;-69
2021/03/24 09:53:21;;;;;;;4.95;3.25;;;;;;;3.50;47.26;99740.83;1691506;85;21160;-69
2021/03/24 09:56:05;;;;;;;4.70;2.90;;;;;;;3.50;46.82;99726.03;1691048;85;21148;-70
2021/03/24 09:59:06;;;;;;;7.05;3.72;;;;;;;3.55;47.26;99730.19;1691434;85;21167;-69
2021/03/24 10:02:02;;;;;;;5.42;3.52;;;;;;;3.66;48.20;99728.60;1779833;79;23073;-67
2021/03/24 10:04:53;;;;;;;5.65;3.60;;;;;;;3.76;46.84;99738.30;1743283;82;21160;-67
2021/03/24 10:07:24;;;;;;;6.25;4.00;;;;;;;3.75;46.83;99734.81;1651242;87;21196;-67
2021/03/24 10:10:15;;;;;;;6.67;3.77;;;;;;;3.82;46.77;99730.69;1682351;85;21206;-66
2021/03/24 10:13:02;;;;;;;6.83;3.80;;;;;;;3.83;46.54;99736.34;1651425;85;21202;-67
2021/03/24 10:15:48;;;;;;;4.80;2.52;;;;;;;3.72;46.39;99738.48;1651082;87;21624;-67
2021/03/24 10:18:41;;;;;;;5.00;3.40;;;;;;;3.65;46.76;99726.44;1627059;87;21181;-67
2021/03/24 10:21:16;;;;;;;5.42;3.12;;;;;;;3.67;47.16;99732.95;1654874;87;21236;-67
2021/03/24 10:23:58;;;;;;;5.30;3.50;;;;;;;3.77;46.86;99729.19;1649365;87;21210;-66
2021/03/24 10:26:35;;;;;;;5.33;3.52;;;;;;;3.72;45.84;99694.06;1649453;87;21219;-67
2021/03/24 10:29:11;;;;;;;7.08;4.30;;;;;;;3.91;45.95;99729.30;1649028;85;21177;-66
2021/03/24 10:31:50;;;;;;;7.50;4.33;;;;;;;3.98;46.08;99709.83;1649675;85;21624;-66
2021/03/24 10:34:47;;;;;;;7.80;4.17;;;;;;;4.00;46.06;99720.66;1678321;84;21150;-67
2021/03/24 10:38:06;;;;;;;7.33;4.10;;;;;;;4.01;45.89;99714.23;1656874;85;21169;-67
2021/03/24 10:40:37;;;;;;;7.15;4.37;;;;;;;4.05;45.75;99726.71;1631890;87;21221;-67
2021/03/24 10:43:19;;;;;;;6.62;3.87;;;;;;;4.09;45.51;99707.70;1621633;88;21214;-67
2021/03/24 10:45:55;;;;;;;5.97;3.52;;;;;;;4.05;45.74;99712.42;1618352;88;21194;-66
2021/03/24 10:48:30;;;;;;;4.92;3.02;;;;;;;4.12;46.24;99723.40;1587490;88;21253;-67
2021/03/24 10:51:10;;;;;;;5.00;3.58;;;;;;;4.30;44.89;99717.94;1595896;88;21226;-68
2021/03/24 10:53:38;;;;;;;5.58;3.40;;;;;;;4.36;44.43;99730.48;1595768;89;21697;-69
2021/03/24 10:56:32;;;;;;;5.55;3.17;;;;;;;4.23;44.55;99742.81;1612532;88;21677;-66
2021/03/24 10:59:45;;;;;;;6.15;3.30;;;;;;;4.23;44.34;99718.56;1621588;88;21198;-66
2021/03/24 11:02:44;;;;;;;6.37;3.30;;;;;;;4.36;45.14;99729.13;1621440;88;21199;-67
2021/03/24 11:05:15;;;;;;;9.23;3.67;;;;;;;4.52;44.21;99714.16;1619508;87;21202;-66
2021/03/24 11:08:10;;;;;;;3.87;2.77;;;;;;;4.62;43.63;99717.10;1599072;90;21581;-67
2021/03/24 11:10:51;;;;;;;5.95;3.10;;;;;;;4.74;43.41;99715.24;1584775;88;21224;-66
2021/03/24 11:13:30;;;;;;;4.78;3.35;;;;;;;4.77;42.65;99715.30;1594095;90;21675;-66
2021/03/24 11:16:10;;;;;;;6.58;3.35;;;;;;;4.69;43.05;99717.80;1570267;90;21236;-66
2021/03/24 11:18:49;;;;;;;6.28;3.40;;;;;;;4.67;43.30;99720.45;1548600;92;21370;-66
2021/03/24 11:21:39;;;;;;;5.10;3.27;;;;;;;4.73;43.40;99715.47;1545857;91;21682;-67
2021/03/24 11:24:15;;;;;;;5.40;3.37;;;;;;;4.99;42.39;99708.25;1548892;91;21262;-66
2021/03/24 11:26:48;;;;;;;;;;;;;;;5.06;42.07;99702.20;1597703;89;21190;-66
2021/03/24 11:29:21;;;;;;;5.92;3.05;;;;;;;5.01;41.38;99704.78;1596124;88;20192;-67
2021/03/24 11:32:22;;;;;;;4.03;2.65;;;;;;;4.96;41.93;99711.40;1595318;89;21174;-67
2021/03/24 11:35:01;;;;;;;5.20;3.22;;;;;;;5.08;42.08;99710.05;1614791;87;21691;-66
2021/03/24 11:37:48;;;;;;;4.62;2.83;;;;;;;5.32;42.98;99699.50;1621113;88;21202;-66
2021/03/24 11:40:42;;;;;;;4.78;2.90;;;;;;;5.52;40.57;99709.38;1661800;84;21243;-66
2021/03/24 11:43:26;;;;;;;4.55;3.05;;;;;;;5.37;40.08;99688.81;1779090;79;22993;-67
2021/03/24 11:46:29;;;;;;;3.92;2.55;;;;;;;5.03;40.32;99713.45;1723286;82;21316;-66
2021/03/24 11:49:33;;;;;;;4.35;2.58;;;;;;;4.92;41.23;99706.20;1752659;82;21165;-67
2021/03/24 11:52:36;;;;;;;3.87;2.75;;;;;;;5.18;41.56;99710.27;1745755;81;21340;-68
2021/03/24 11:55:39;;;;;;;4.17;2.60;;;;;;;5.55;40.64;99691.34;1752598;82;21214;-67
2021/03/24 11:58:37;;;;;;;4.25;2.40;;;;;;;5.66;38.69;99695.89;1651123;87;21232;-67
2021/03/24 12:01:33;;;;;;;4.47;2.35;;;;;;;5.57;38.75;99700.02;1656862;85;21192;-67
2021/03/24 12:04:30;;;;;;;3.83;2.65;;;;;;;5.30;38.62;99705.67;1656205;86;21204;-68
2021/03/24 12:07:25;;;;;;;7.78;2.70;;;;;;;4.99;39.23;99704.20;1651048;87;21357;-67
2021/03/24 12:10:14;;;;;;;9.75;3.05;;;;;;;5.13;40.38;99702.91;1656120;86;21168;-67
2021/03/24 12:12:43;;;;;;;3.77;2.50;;;;;;;5.50;39.52;99692.06;1654589;85;21177;-67
2021/03/24 12:15:24;;;;;;;5.00;2.72;;;;;;;5.74;39.75;99698.19;1668389;84;21210;-68
2021/03/24 12:18:17;;;;;;;5.15;2.67;;;;;;;5.78;38.79;99702.05;1702786;83;21934;-67
2021/03/24 12:21:25;;;;;;;6.30;2.87;;;;;;;5.76;38.95;99695.25;1701888;84;21189;-67
2021/03/24 12:23:56;;;;;;;4.85;2.67;;;;;;;5.63;38.53;99700.42;1702812;83;21580;-66
2021/03/24 12:26:31;;;;;;;4.53;2.22;;;;;;;5.44;39.46;99705.70;1702941;83;21346;-66
2021/03/24 12:29:09;;;;;;;4.55;2.75;;;;;;;5.31;38.82;99692.48;1779483;79;23261;-67
2021/03/24 12:31:56;;;;;;;3.33;2.08;;;;;;;5.23;39.19;99692.31;1724631;82;21530;-67
2021/03/24 12:34:25;;;;;;;3.80;2.50;;;;;;;5.34;39.39;99696.87;1678608;85;21137;-68
2021/03/24 12:36:56;;;;;;;3.52;1.95;;;;;;;5.55;39.05;99697.27;1656689;85;21588;-66
2021/03/24 12:39:34;;;;;;;5.55;2.60;;;;;;;5.62;38.26;99699.30;1680781;85;21180;-67
2021/03/24 12:42:14;;;;;;;4.95;3.12;;;;;;;5.66;37.40;99692.36;1656082;86;21195;-67
2021/03/24 12:44:42;;;;;;;4.85;2.42;;;;;;;5.68;37.71;99689.70;1691541;85;21325;-67
2021/03/24 12:47:37;;;;;;;4.70;2.72;;;;;;;5.65;38.76;99692.89;1651302;87;21759;-66
2021/03/24 12:50:15;;;;;;;3.75;2.35;;;;;;;5.71;38.30;99700.02;1657932;85;21160;-67
2021/03/24 12:53:07;;;;;;;3.67;2.05;;;;;;;5.77;37.92;99695.55;1655930;85;21730;-67
2021/03/24 12:55:36;;;;;;;4.67;2.60;;;;;;;5.73;37.49;99691.16;1645952;87;21255;-67
2021/03/24 12:58:42;;;;;;;6.53;3.00;;;;;;;5.67;37.79;99696.72;1691261;84;21676;-66